createdAt,value
2018-01-07T00:00:12.181Z,0.00
2018-01-07T00:01:12.200Z,0.00
2018-01-07T00:02:12.517Z,0.00
2018-01-07T00:03:12.231Z,0.00
2018-01-07T00:04:12.239Z,0.00
2018-01-07T00:05:12.249Z,0.00
2018-01-07T00:06:12.271Z,0.00
2018-01-07T00:07:12.285Z,0.00
2018-01-07T00:08:12.295Z,0.00
2018-01-07T00:09:12.310Z,0.00
2018-01-07T00:10:12.318Z,0.00
2018-01-07T00:11:12.328Z,0.00
2018-01-07T00:12:12.350Z,0.00
2018-01-07T00:13:12.357Z,0.00
2018-01-07T00:14:12.367Z,0.00
2018-01-07T00:15:12.389Z,0.00
2018-01-07T00:16:12.404Z,0.00
2018-01-07T00:17:12.712Z,0.00
2018-01-07T00:18:12.434Z,0.00
2018-01-07T00:19:12.443Z,0.00
2018-01-07T00:20:12.457Z,0.00
2018-01-07T00:21:12.467Z,0.00
2018-01-07T00:22:12.482Z,0.00
2018-01-07T00:23:12.492Z,0.00
2018-01-07T00:24:12.505Z,0.00
2018-01-07T00:25:12.521Z,0.00
2018-01-07T00:26:12.525Z,0.00
2018-01-07T00:27:12.546Z,0.00
2018-01-07T00:28:12.554Z,0.00
2018-01-07T00:29:12.563Z,0.00
2018-01-07T00:30:12.591Z,0.00
2018-01-07T00:31:12.600Z,0.00
2018-01-07T00:32:12.609Z,0.00
2018-01-07T00:33:12.630Z,0.00
2018-01-07T00:34:12.634Z,0.00
2018-01-07T00:35:12.660Z,0.00
2018-01-07T00:36:12.667Z,0.00
2018-01-07T00:37:12.678Z,0.00
2018-01-07T00:38:12.692Z,0.00
2018-01-07T00:39:12.702Z,0.00
2018-01-07T00:40:12.710Z,0.00
2018-01-07T00:41:12.726Z,0.00
2018-01-07T00:42:12.740Z,0.00
2018-01-07T00:43:12.750Z,0.00
2018-01-07T00:44:12.764Z,0.00
2018-01-07T00:45:12.780Z,0.00
2018-01-07T00:46:12.796Z,0.00
2018-01-07T00:47:12.810Z,0.00
2018-01-07T00:48:12.826Z,0.00
2018-01-07T00:49:12.828Z,0.00
2018-01-07T00:50:12.850Z,0.00
2018-01-07T00:51:12.865Z,0.00
2018-01-07T00:52:13.167Z,0.00
2018-01-07T00:53:12.888Z,0.00
2018-01-07T00:54:12.899Z,0.00
2018-01-07T00:55:12.906Z,0.00
2018-01-07T00:56:12.917Z,0.00
2018-01-07T00:57:12.937Z,0.00
2018-01-07T00:58:12.946Z,0.00
2018-01-07T00:59:12.966Z,0.00
2018-01-07T01:00:12.983Z,0.00
2018-01-07T01:01:12.984Z,0.00
2018-01-07T01:02:12.995Z,0.00
2018-01-07T01:03:13.015Z,0.00
2018-01-07T01:04:13.024Z,0.00
2018-01-07T01:05:13.040Z,0.00
2018-01-07T01:06:13.063Z,0.00
2018-01-07T01:07:13.063Z,0.00
2018-01-07T01:08:13.072Z,0.00
2018-01-07T01:09:13.100Z,0.00
2018-01-07T01:10:13.102Z,0.00
2018-01-07T01:11:13.111Z,0.00
2018-01-07T01:12:13.133Z,0.00
2018-01-07T01:13:13.147Z,0.00
2018-01-07T01:14:13.151Z,0.00
2018-01-07T01:15:13.177Z,0.00
2018-01-07T01:16:13.180Z,0.00
2018-01-07T01:17:13.439Z,0.00
2018-01-07T01:18:13.218Z,0.00
2018-01-07T01:19:13.221Z,0.00
2018-01-07T01:20:13.233Z,0.00
2018-01-07T01:21:13.239Z,0.00
2018-01-07T01:22:13.258Z,0.00
2018-01-07T01:23:13.273Z,0.00
2018-01-07T01:24:13.277Z,0.00
2018-01-07T01:25:13.299Z,0.00
2018-01-07T01:26:13.313Z,0.00
2018-01-07T01:27:13.323Z,0.00
2018-01-07T01:28:13.338Z,0.00
2018-01-07T01:29:13.346Z,0.00
2018-01-07T01:30:13.362Z,0.00
2018-01-07T01:31:13.377Z,0.00
2018-01-07T01:32:13.391Z,0.00
2018-01-07T01:33:13.394Z,0.00
2018-01-07T01:34:13.411Z,0.00
2018-01-07T01:35:13.431Z,0.00
2018-01-07T01:36:13.434Z,0.00
2018-01-07T01:37:13.743Z,0.00
2018-01-07T01:38:13.471Z,0.00
2018-01-07T01:39:13.472Z,0.00
2018-01-07T01:40:13.482Z,0.00
2018-01-07T01:41:13.491Z,0.00
2018-01-07T01:42:13.513Z,0.00
2018-01-07T01:43:13.521Z,0.00
2018-01-07T01:44:13.530Z,0.00
2018-01-07T01:45:13.550Z,0.00
2018-01-07T01:46:13.561Z,0.00
2018-01-07T01:47:13.587Z,0.00
2018-01-07T01:48:13.590Z,0.00
2018-01-07T01:49:13.599Z,0.00
2018-01-07T01:50:13.627Z,0.00
2018-01-07T01:51:13.628Z,0.00
2018-01-07T01:52:13.639Z,0.00
2018-01-07T01:53:13.647Z,0.00
2018-01-07T01:54:13.664Z,0.00
2018-01-07T01:55:13.678Z,0.00
2018-01-07T01:56:13.687Z,0.00
2018-01-07T01:57:13.702Z,0.00
2018-01-07T01:58:13.717Z,0.00
2018-01-07T01:59:13.732Z,0.00
2018-01-07T02:00:13.734Z,0.00
2018-01-07T02:01:13.744Z,0.00
2018-01-07T02:02:14.072Z,0.00
2018-01-07T02:03:13.781Z,0.00
2018-01-07T02:04:13.782Z,0.00
2018-01-07T02:05:13.810Z,0.00
2018-01-07T02:06:13.814Z,0.00
2018-01-07T02:07:13.829Z,0.00
2018-01-07T02:08:13.831Z,0.00
2018-01-07T02:09:13.852Z,0.00
2018-01-07T02:10:13.860Z,0.00
2018-01-07T02:11:13.872Z,0.00
2018-01-07T02:12:13.898Z,0.00
2018-01-07T02:13:13.907Z,0.00
2018-01-07T02:14:13.908Z,0.00
2018-01-07T02:15:13.930Z,0.00
2018-01-07T02:16:13.938Z,0.00
2018-01-07T02:17:14.255Z,0.00
2018-01-07T02:18:13.958Z,0.00
2018-01-07T02:19:13.978Z,0.00
2018-01-07T02:20:13.988Z,0.00
2018-01-07T02:21:13.995Z,0.00
2018-01-07T02:22:14.026Z,0.00
2018-01-07T02:23:14.027Z,0.00
2018-01-07T02:24:14.035Z,0.00
2018-01-07T02:25:14.056Z,0.00
2018-01-07T02:26:14.068Z,0.00
2018-01-07T02:27:14.076Z,0.00
2018-01-07T02:28:14.083Z,0.00
2018-01-07T02:29:14.105Z,0.00
2018-01-07T02:30:14.114Z,0.00
2018-01-07T02:31:14.130Z,0.00
2018-01-07T02:32:14.151Z,0.00
2018-01-07T02:33:14.153Z,0.00
2018-01-07T02:34:14.162Z,0.00
2018-01-07T02:35:14.184Z,0.00
2018-01-07T02:36:14.193Z,0.00
2018-01-07T02:37:14.454Z,0.00
2018-01-07T02:38:14.210Z,0.00
2018-01-07T02:39:14.230Z,0.00
2018-01-07T02:40:14.246Z,0.00
2018-01-07T02:41:14.248Z,0.00
2018-01-07T02:42:14.279Z,0.00
2018-01-07T02:43:14.279Z,0.00
2018-01-07T02:44:14.289Z,0.00
2018-01-07T02:45:14.305Z,0.00
2018-01-07T02:46:14.319Z,0.00
2018-01-07T02:47:14.328Z,0.00
2018-01-07T02:48:14.337Z,0.00
2018-01-07T02:49:14.358Z,0.00
2018-01-07T02:50:14.366Z,0.00
2018-01-07T02:51:14.388Z,0.00
2018-01-07T02:52:14.405Z,0.00
2018-01-07T02:53:14.406Z,0.00
2018-01-07T02:54:14.422Z,0.00
2018-01-07T02:55:14.435Z,0.00
2018-01-07T02:56:14.445Z,0.00
2018-01-07T02:57:14.454Z,0.00
2018-01-07T02:58:14.468Z,0.00
2018-01-07T02:59:14.491Z,0.00
2018-01-07T03:00:14.494Z,0.00
2018-01-07T03:01:14.501Z,0.00
2018-01-07T03:02:14.524Z,0.00
2018-01-07T03:03:14.538Z,0.00
2018-01-07T03:04:14.554Z,0.00
2018-01-07T03:05:14.563Z,0.00
2018-01-07T03:06:14.572Z,0.00
2018-01-07T03:07:14.581Z,0.00
2018-01-07T03:08:14.591Z,0.00
2018-01-07T03:09:14.616Z,0.00
2018-01-07T03:10:14.627Z,0.00
2018-01-07T03:11:14.636Z,0.00
2018-01-07T03:12:14.650Z,0.00
2018-01-07T03:13:14.666Z,0.00
2018-01-07T03:14:14.667Z,0.00
2018-01-07T03:15:14.689Z,0.00
2018-01-07T03:16:14.697Z,0.00
2018-01-07T03:17:15.007Z,0.00
2018-01-07T03:18:14.723Z,0.00
2018-01-07T03:19:14.736Z,0.00
2018-01-07T03:20:14.753Z,0.00
2018-01-07T03:21:14.755Z,0.00
2018-01-07T03:22:14.783Z,0.00
2018-01-07T03:23:14.792Z,0.00
2018-01-07T03:24:14.794Z,0.00
2018-01-07T03:25:14.834Z,0.00
2018-01-07T03:26:14.832Z,0.00
2018-01-07T03:27:14.832Z,0.00
2018-01-07T03:28:14.842Z,0.00
2018-01-07T03:29:14.864Z,0.00
2018-01-07T03:30:14.879Z,0.00
2018-01-07T03:31:14.900Z,0.00
2018-01-07T03:32:14.898Z,0.00
2018-01-07T03:33:14.912Z,0.00
2018-01-07T03:34:14.926Z,0.00
2018-01-07T03:35:14.933Z,0.00
2018-01-07T03:36:14.951Z,0.00
2018-01-07T03:37:14.969Z,0.00
2018-01-07T03:38:14.969Z,0.00
2018-01-07T03:39:14.996Z,0.00
2018-01-07T03:40:15.007Z,0.00
2018-01-07T03:41:15.014Z,0.00
2018-01-07T03:42:15.017Z,0.00
2018-01-07T03:43:15.044Z,0.00
2018-01-07T03:44:15.048Z,0.00
2018-01-07T03:45:15.056Z,0.00
2018-01-07T03:46:15.066Z,0.00
2018-01-07T03:47:15.085Z,0.00
2018-01-07T03:48:15.100Z,0.00
2018-01-07T03:49:15.117Z,0.00
2018-01-07T03:50:15.126Z,0.00
2018-01-07T03:51:15.143Z,0.00
2018-01-07T03:52:15.143Z,0.00
2018-01-07T03:53:15.160Z,0.00
2018-01-07T03:54:15.173Z,0.00
2018-01-07T03:55:15.182Z,0.00
2018-01-07T03:56:15.191Z,0.00
2018-01-07T03:57:15.206Z,0.00
2018-01-07T03:58:15.220Z,0.00
2018-01-07T03:59:15.231Z,0.00
2018-01-07T04:00:15.249Z,0.00
2018-01-07T04:01:15.248Z,0.00
2018-01-07T04:02:15.269Z,0.00
2018-01-07T04:03:15.278Z,0.00
2018-01-07T04:04:15.289Z,0.00
2018-01-07T04:05:15.296Z,0.00
2018-01-07T04:06:15.324Z,0.00
2018-01-07T04:07:15.326Z,0.00
2018-01-07T04:08:15.335Z,0.00
2018-01-07T04:09:15.344Z,0.00
2018-01-07T04:10:15.367Z,0.00
2018-01-07T04:11:15.373Z,0.00
2018-01-07T04:12:15.385Z,0.00
2018-01-07T04:13:15.399Z,0.00
2018-01-07T04:14:15.413Z,0.00
2018-01-07T04:15:15.428Z,0.00
2018-01-07T04:16:15.437Z,0.00
2018-01-07T04:17:15.459Z,0.00
2018-01-07T04:18:15.467Z,0.00
2018-01-07T04:19:15.477Z,0.00
2018-01-07T04:20:15.480Z,0.00
2018-01-07T04:21:15.502Z,0.00
2018-01-07T04:22:15.510Z,0.00
2018-01-07T04:23:15.524Z,0.00
2018-01-07T04:24:15.530Z,0.00
2018-01-07T04:25:15.548Z,0.00
2018-01-07T04:26:15.565Z,0.00
2018-01-07T04:27:15.573Z,0.00
2018-01-07T04:28:15.582Z,0.00
2018-01-07T04:29:15.598Z,0.00
2018-01-07T04:30:15.606Z,0.00
2018-01-07T04:31:15.617Z,0.00
2018-01-07T04:32:15.633Z,0.00
2018-01-07T04:33:15.644Z,0.00
2018-01-07T04:34:15.661Z,0.00
2018-01-07T04:35:15.662Z,0.00
2018-01-07T04:36:15.679Z,0.00
2018-01-07T04:37:15.699Z,0.00
2018-01-07T04:38:15.709Z,0.00
2018-01-07T04:39:15.711Z,0.00
2018-01-07T04:40:15.721Z,0.00
2018-01-07T04:41:15.747Z,0.00
2018-01-07T04:42:15.756Z,0.00
2018-01-07T04:43:15.771Z,0.00
2018-01-07T04:44:15.781Z,0.00
2018-01-07T04:45:15.790Z,0.00
2018-01-07T04:46:15.798Z,0.00
2018-01-07T04:47:15.814Z,0.00
2018-01-07T04:48:15.828Z,0.00
2018-01-07T04:49:15.836Z,0.00
2018-01-07T04:50:15.846Z,0.00
2018-01-07T04:51:15.854Z,0.00
2018-01-07T04:52:16.184Z,0.00
2018-01-07T04:53:15.891Z,0.00
2018-01-07T04:54:15.894Z,0.00
2018-01-07T04:55:15.904Z,0.00
2018-01-07T04:56:15.932Z,0.00
2018-01-07T04:57:15.940Z,0.00
2018-01-07T04:58:15.942Z,0.00
2018-01-07T04:59:15.957Z,0.00
2018-01-07T05:00:15.973Z,0.00
2018-01-07T05:01:15.988Z,0.00
2018-01-07T05:02:15.991Z,0.00
2018-01-07T05:03:16.000Z,0.00
2018-01-07T05:04:16.021Z,0.00
2018-01-07T05:05:16.041Z,0.00
2018-01-07T05:06:16.048Z,0.00
2018-01-07T05:07:16.061Z,0.00
2018-01-07T05:08:16.074Z,0.00
2018-01-07T05:09:16.078Z,0.00
2018-01-07T05:10:16.093Z,0.00
2018-01-07T05:11:16.113Z,0.00
2018-01-07T05:12:16.116Z,0.00
2018-01-07T05:13:16.126Z,0.00
2018-01-07T05:14:16.136Z,0.00
2018-01-07T05:15:16.144Z,0.00
2018-01-07T05:16:16.171Z,0.00
2018-01-07T05:17:16.481Z,0.00
2018-01-07T05:18:16.182Z,0.00
2018-01-07T05:19:16.211Z,0.00
2018-01-07T05:20:16.221Z,0.00
2018-01-07T05:21:16.228Z,0.00
2018-01-07T05:22:16.231Z,0.00
2018-01-07T05:23:16.239Z,0.00
2018-01-07T05:24:16.268Z,0.00
2018-01-07T05:25:16.276Z,0.00
2018-01-07T05:26:16.280Z,0.00
2018-01-07T05:27:16.294Z,0.00
2018-01-07T05:28:16.307Z,0.00
2018-01-07T05:29:16.325Z,0.00
2018-01-07T05:30:16.334Z,0.00
2018-01-07T05:31:16.335Z,0.00
2018-01-07T05:32:16.344Z,0.00
2018-01-07T05:33:16.376Z,0.00
2018-01-07T05:34:16.374Z,0.00
2018-01-07T05:35:16.391Z,0.00
2018-01-07T05:36:16.399Z,0.00
2018-01-07T05:37:16.425Z,0.00
2018-01-07T05:38:16.429Z,0.00
2018-01-07T05:39:16.439Z,0.00
2018-01-07T05:40:16.441Z,0.00
2018-01-07T05:41:16.462Z,0.00
2018-01-07T05:42:16.783Z,0.00
2018-01-07T05:43:16.484Z,0.00
2018-01-07T05:44:16.496Z,0.00
2018-01-07T05:45:16.506Z,0.00
2018-01-07T05:46:16.525Z,0.00
2018-01-07T05:47:16.527Z,0.00
2018-01-07T05:48:16.538Z,0.00
2018-01-07T05:49:16.550Z,0.00
2018-01-07T05:50:16.586Z,0.00
2018-01-07T05:51:16.583Z,0.00
2018-01-07T05:52:16.585Z,0.00
2018-01-07T05:53:16.594Z,0.00
2018-01-07T05:54:16.615Z,0.00
2018-01-07T05:55:16.624Z,0.00
2018-01-07T05:56:16.640Z,0.00
2018-01-07T05:57:16.642Z,0.00
2018-01-07T05:58:16.659Z,0.00
2018-01-07T05:59:16.673Z,0.00
2018-01-07T06:00:16.688Z,0.00
2018-01-07T06:01:16.696Z,0.00
2018-01-07T06:02:17.006Z,0.00
2018-01-07T06:03:16.727Z,0.00
2018-01-07T06:04:16.730Z,0.00
2018-01-07T06:05:16.737Z,0.00
2018-01-07T06:06:16.748Z,0.00
2018-01-07T06:07:16.756Z,0.00
2018-01-07T06:08:16.784Z,0.00
2018-01-07T06:09:16.797Z,0.00
2018-01-07T06:10:16.795Z,0.00
2018-01-07T06:11:16.811Z,0.00
2018-01-07T06:12:16.821Z,0.00
2018-01-07T06:13:16.833Z,0.00
2018-01-07T06:14:16.850Z,0.00
2018-01-07T06:15:16.858Z,0.00
2018-01-07T06:16:16.861Z,0.00
2018-01-07T06:17:17.185Z,0.00
2018-01-07T06:18:16.890Z,0.00
2018-01-07T06:19:16.906Z,0.00
2018-01-07T06:20:16.909Z,0.00
2018-01-07T06:21:16.918Z,0.00
2018-01-07T06:22:16.945Z,0.00
2018-01-07T06:23:16.948Z,0.00
2018-01-07T06:24:16.957Z,0.00
2018-01-07T06:25:16.966Z,0.00
2018-01-07T06:26:16.986Z,0.00
2018-01-07T06:27:16.997Z,0.00
2018-01-07T06:28:17.005Z,0.00
2018-01-07T06:29:17.020Z,0.00
2018-01-07T06:30:17.022Z,0.00
2018-01-07T06:31:17.044Z,0.00
2018-01-07T06:32:17.053Z,0.00
2018-01-07T06:33:17.061Z,0.00
2018-01-07T06:34:17.071Z,0.00
2018-01-07T06:35:17.086Z,0.00
2018-01-07T06:36:17.089Z,4.00
2018-01-07T06:37:17.417Z,4.00
2018-01-07T06:38:17.124Z,0.00
2018-01-07T06:39:17.135Z,4.00
2018-01-07T06:40:17.143Z,4.00
2018-01-07T06:41:17.156Z,4.00
2018-01-07T06:42:17.167Z,4.00
2018-01-07T06:43:17.183Z,8.00
2018-01-07T06:44:17.186Z,4.00
2018-01-07T06:45:17.193Z,4.00
2018-01-07T06:46:17.209Z,8.00
2018-01-07T06:47:17.231Z,8.00
2018-01-07T06:48:17.233Z,12.00
2018-01-07T06:49:17.243Z,12.00
2018-01-07T06:50:17.252Z,16.00
2018-01-07T06:51:17.267Z,16.00
2018-01-07T06:52:17.269Z,16.00
2018-01-07T06:53:17.311Z,20.00
2018-01-07T06:54:17.304Z,24.00
2018-01-07T06:55:17.309Z,24.00
2018-01-07T06:56:17.324Z,32.00
2018-01-07T06:57:17.327Z,36.00
2018-01-07T06:58:17.358Z,40.00
2018-01-07T06:59:17.356Z,44.00
2018-01-07T07:00:17.365Z,52.00
2018-01-07T07:01:17.380Z,60.00
2018-01-07T07:02:17.684Z,68.00
2018-01-07T07:03:17.403Z,76.00
2018-01-07T07:04:17.412Z,84.00
2018-01-07T07:05:17.422Z,92.00
2018-01-07T07:06:17.434Z,96.00
2018-01-07T07:07:17.457Z,112.00
2018-01-07T07:08:17.459Z,120.00
2018-01-07T07:09:17.475Z,128.00
2018-01-07T07:10:17.485Z,140.00
2018-01-07T07:11:17.489Z,148.00
2018-01-07T07:12:17.509Z,160.00
2018-01-07T07:13:17.507Z,168.00
2018-01-07T07:14:17.528Z,176.00
2018-01-07T07:15:17.541Z,188.00
2018-01-07T07:16:17.544Z,196.00
2018-01-07T07:17:17.559Z,208.00
2018-01-07T07:18:17.568Z,216.00
2018-01-07T07:19:17.590Z,224.00
2018-01-07T07:20:17.606Z,240.00
2018-01-07T07:21:17.602Z,264.00
2018-01-07T07:22:17.910Z,280.00
2018-01-07T07:23:17.626Z,300.00
2018-01-07T07:24:17.629Z,308.00
2018-01-07T07:25:17.649Z,316.00
2018-01-07T07:26:17.658Z,344.00
2018-01-07T07:27:17.667Z,356.00
2018-01-07T07:28:17.684Z,384.00
2018-01-07T07:29:17.685Z,416.00
2018-01-07T07:30:17.713Z,460.00
2018-01-07T07:31:17.725Z,500.00
2018-01-07T07:32:17.730Z,516.00
2018-01-07T07:33:17.734Z,564.00
2018-01-07T07:34:17.745Z,584.00
2018-01-07T07:35:17.762Z,596.00
2018-01-07T07:36:17.778Z,624.00
2018-01-07T07:37:17.781Z,656.00
2018-01-07T07:38:17.790Z,664.00
2018-01-07T07:39:17.799Z,660.00
2018-01-07T07:40:17.820Z,656.00
2018-01-07T07:41:17.836Z,672.00
2018-01-07T07:42:17.845Z,716.00
2018-01-07T07:43:17.847Z,788.00
2018-01-07T07:44:17.861Z,824.00
2018-01-07T07:45:17.865Z,836.00
2018-01-07T07:46:17.887Z,860.00
2018-01-07T07:47:17.894Z,912.00
2018-01-07T07:48:17.915Z,968.00
2018-01-07T07:49:17.920Z,1024.00
2018-01-07T07:50:17.940Z,1120.00
2018-01-07T07:51:17.943Z,1196.00
2018-01-07T07:52:17.953Z,1260.00
2018-01-07T07:53:17.968Z,1288.00
2018-01-07T07:54:17.969Z,1292.00
2018-01-07T07:55:17.979Z,1300.00
2018-01-07T07:56:18.001Z,1368.00
2018-01-07T07:57:18.010Z,1472.00
2018-01-07T07:58:18.018Z,1532.00
2018-01-07T07:59:18.034Z,1584.00
2018-01-07T08:00:18.035Z,1508.00
2018-01-07T08:01:18.064Z,1424.00
2018-01-07T08:02:18.065Z,1300.00
2018-01-07T08:03:18.077Z,1260.00
2018-01-07T08:04:18.090Z,1252.00
2018-01-07T08:05:18.100Z,1276.00
2018-01-07T08:06:18.114Z,1404.00
2018-01-07T08:07:18.122Z,1548.00
2018-01-07T08:08:18.139Z,1700.00
2018-01-07T08:09:18.142Z,1872.00
2018-01-07T08:10:18.161Z,1964.00
2018-01-07T08:11:18.172Z,2008.00
2018-01-07T08:12:18.180Z,1984.00
2018-01-07T08:13:18.197Z,2084.00
2018-01-07T08:14:18.198Z,2108.00
2018-01-07T08:15:18.216Z,2228.00
2018-01-07T08:16:18.217Z,2432.00
2018-01-07T08:17:18.243Z,2628.00
2018-01-07T08:18:18.258Z,2724.00
2018-01-07T08:19:18.260Z,2672.00
2018-01-07T08:20:18.263Z,2488.00
2018-01-07T08:21:18.285Z,2244.00
2018-01-07T08:22:18.301Z,2156.00
2018-01-07T08:23:18.309Z,2188.00
2018-01-07T08:24:18.318Z,2276.00
2018-01-07T08:25:18.321Z,2364.00
2018-01-07T08:26:18.342Z,2360.00
2018-01-07T08:27:18.370Z,2320.00
2018-01-07T08:28:18.365Z,2328.00
2018-01-07T08:29:18.378Z,2344.00
2018-01-07T08:30:18.384Z,2316.00
2018-01-07T08:31:18.398Z,2340.00
2018-01-07T08:32:18.408Z,2400.00
2018-01-07T08:33:18.417Z,2448.00
2018-01-07T08:34:18.432Z,2588.00
2018-01-07T08:35:18.447Z,2812.00
2018-01-07T08:36:18.462Z,2948.00
2018-01-07T08:37:18.466Z,3000.00
2018-01-07T08:38:18.474Z,3000.00
2018-01-07T08:39:18.482Z,2936.00
2018-01-07T08:40:18.504Z,2880.00
2018-01-07T08:41:18.514Z,2812.00
2018-01-07T08:42:18.523Z,2784.00
2018-01-07T08:43:18.537Z,2804.00
2018-01-07T08:44:18.540Z,2840.00
2018-01-07T08:45:18.560Z,2848.00
2018-01-07T08:46:18.577Z,2848.00
2018-01-07T08:47:18.834Z,2852.00
2018-01-07T08:48:18.587Z,2860.00
2018-01-07T08:49:18.598Z,2856.00
2018-01-07T08:50:18.625Z,2876.00
2018-01-07T08:51:18.629Z,2908.00
2018-01-07T08:52:18.648Z,2948.00
2018-01-07T08:53:18.651Z,3044.00
2018-01-07T08:54:18.673Z,3148.00
2018-01-07T08:55:18.680Z,3252.00
2018-01-07T08:56:18.683Z,3376.00
2018-01-07T08:57:18.693Z,3440.00
2018-01-07T08:58:18.701Z,3504.00
2018-01-07T08:59:18.724Z,3624.00
2018-01-07T09:00:18.731Z,3712.00
2018-01-07T09:01:18.741Z,3768.00
2018-01-07T09:02:18.750Z,3820.00
2018-01-07T09:03:18.779Z,3948.00
2018-01-07T09:04:18.786Z,4112.00
2018-01-07T09:05:18.790Z,4256.00
2018-01-07T09:06:18.798Z,4424.00
2018-01-07T09:07:18.808Z,4604.00
2018-01-07T09:08:18.835Z,4680.00
2018-01-07T09:09:18.839Z,4728.00
2018-01-07T09:10:18.847Z,4756.00
2018-01-07T09:11:18.855Z,4784.00
2018-01-07T09:12:18.882Z,4868.00
2018-01-07T09:13:18.891Z,4916.00
2018-01-07T09:14:18.900Z,4912.00
2018-01-07T09:15:18.909Z,4960.00
2018-01-07T09:16:18.924Z,5040.00
2018-01-07T09:17:18.932Z,5048.00
2018-01-07T09:18:18.948Z,5024.00
2018-01-07T09:19:18.950Z,5052.00
2018-01-07T09:20:18.978Z,5112.00
2018-01-07T09:21:18.981Z,5108.00
2018-01-07T09:22:18.998Z,5172.00
2018-01-07T09:23:19.006Z,5280.00
2018-01-07T09:24:19.014Z,5244.00
2018-01-07T09:25:19.030Z,5308.00
2018-01-07T09:26:19.039Z,5352.00
2018-01-07T09:27:19.048Z,5348.00
2018-01-07T09:28:19.056Z,5204.00
2018-01-07T09:29:19.077Z,5076.00
2018-01-07T09:30:19.086Z,4996.00
2018-01-07T09:31:19.095Z,4912.00
2018-01-07T09:32:19.105Z,4916.00
2018-01-07T09:33:19.132Z,4952.00
2018-01-07T09:34:19.137Z,4964.00
2018-01-07T09:35:19.144Z,4856.00
2018-01-07T09:36:19.155Z,4804.00
2018-01-07T09:37:19.172Z,4856.00
2018-01-07T09:38:19.181Z,4872.00
2018-01-07T09:39:19.192Z,4984.00
2018-01-07T09:40:19.201Z,5156.00
2018-01-07T09:41:19.221Z,5360.00
2018-01-07T09:42:19.230Z,5388.00
2018-01-07T09:43:19.239Z,5408.00
2018-01-07T09:44:19.250Z,5416.00
2018-01-07T09:45:19.283Z,5392.00
2018-01-07T09:46:19.278Z,5400.00
2018-01-07T09:47:19.286Z,5408.00
2018-01-07T09:48:19.309Z,5244.00
2018-01-07T09:49:19.324Z,5192.00
2018-01-07T09:50:19.350Z,5144.00
2018-01-07T09:51:19.335Z,5312.00
2018-01-07T09:52:19.359Z,5352.00
2018-01-07T09:53:19.372Z,5228.00
2018-01-07T09:54:19.381Z,5140.00
2018-01-07T09:55:19.384Z,5100.00
2018-01-07T09:56:19.405Z,5064.00
2018-01-07T09:57:19.714Z,5072.00
2018-01-07T09:58:19.422Z,5088.00
2018-01-07T09:59:19.451Z,5128.00
2018-01-07T10:00:19.454Z,5172.00
2018-01-07T10:01:19.469Z,5216.00
2018-01-07T10:02:19.472Z,5280.00
2018-01-07T10:03:19.494Z,5420.00
2018-01-07T10:04:19.507Z,5592.00
2018-01-07T10:05:19.510Z,5716.00
2018-01-07T10:06:19.519Z,5728.00
2018-01-07T10:07:19.539Z,5668.00
2018-01-07T10:08:19.556Z,5592.00
2018-01-07T10:09:19.591Z,5612.00
2018-01-07T10:10:19.580Z,5720.00
2018-01-07T10:11:19.589Z,5812.00
2018-01-07T10:12:19.597Z,5868.00
2018-01-07T10:13:19.605Z,5972.00
2018-01-07T10:14:19.634Z,6128.00
2018-01-07T10:15:19.643Z,6296.00
2018-01-07T10:16:19.645Z,6452.00
2018-01-07T10:17:19.663Z,6652.00
2018-01-07T10:18:19.675Z,6832.00
2018-01-07T10:19:19.691Z,6860.00
2018-01-07T10:20:19.701Z,6868.00
2018-01-07T10:21:19.714Z,6944.00
2018-01-07T10:22:19.731Z,7052.00
2018-01-07T10:23:19.738Z,7240.00
2018-01-07T10:24:19.741Z,7372.00
2018-01-07T10:25:19.762Z,7500.00
2018-01-07T10:26:19.784Z,7588.00
2018-01-07T10:27:19.780Z,7616.00
2018-01-07T10:28:19.802Z,7544.00
2018-01-07T10:29:19.816Z,7492.00
2018-01-07T10:30:19.821Z,7408.00
2018-01-07T10:31:19.842Z,7296.00
2018-01-07T10:32:19.849Z,7096.00
2018-01-07T10:33:19.860Z,6852.00
2018-01-07T10:34:19.879Z,6680.00
2018-01-07T10:35:19.895Z,6580.00
2018-01-07T10:36:19.899Z,6596.00
2018-01-07T10:37:20.214Z,6708.00
2018-01-07T10:38:19.928Z,6860.00
2018-01-07T10:39:19.937Z,6964.00
2018-01-07T10:40:19.946Z,7084.00
2018-01-07T10:41:19.966Z,7276.00
2018-01-07T10:42:19.976Z,7428.00
2018-01-07T10:43:19.985Z,7408.00
2018-01-07T10:44:19.995Z,7256.00
2018-01-07T10:45:20.022Z,6972.00
2018-01-07T10:46:20.024Z,6772.00
2018-01-07T10:47:20.041Z,6704.00
2018-01-07T10:48:20.064Z,6736.00
2018-01-07T10:49:20.070Z,6792.00
2018-01-07T10:50:20.079Z,6868.00
2018-01-07T10:51:20.101Z,7012.00
2018-01-07T10:52:20.103Z,7144.00
2018-01-07T10:53:20.118Z,7276.00
2018-01-07T10:54:20.129Z,7484.00
2018-01-07T10:55:20.150Z,7744.00
2018-01-07T10:56:20.152Z,7936.00
2018-01-07T10:57:20.167Z,7960.00
2018-01-07T10:58:20.182Z,7956.00
2018-01-07T10:59:20.191Z,7972.00
2018-01-07T11:00:20.205Z,7908.00
2018-01-07T11:01:20.227Z,7800.00
2018-01-07T11:02:20.236Z,7756.00
2018-01-07T11:03:20.238Z,7840.00
2018-01-07T11:04:20.267Z,7988.00
2018-01-07T11:05:20.268Z,8192.00
2018-01-07T11:06:20.278Z,8324.00
2018-01-07T11:07:20.306Z,8492.00
2018-01-07T11:08:20.307Z,8576.00
2018-01-07T11:09:20.315Z,8520.00
2018-01-07T11:10:20.344Z,8528.00
2018-01-07T11:11:20.347Z,8652.00
2018-01-07T11:12:20.363Z,8900.00
2018-01-07T11:13:20.377Z,9100.00
2018-01-07T11:14:20.386Z,9168.00
2018-01-07T11:15:20.414Z,9204.00
2018-01-07T11:16:20.422Z,9176.00
2018-01-07T11:17:20.726Z,9036.00
2018-01-07T11:18:20.435Z,8908.00
2018-01-07T11:19:20.455Z,8888.00
2018-01-07T11:20:20.471Z,8932.00
2018-01-07T11:21:20.473Z,8964.00
2018-01-07T11:22:20.502Z,8936.00
2018-01-07T11:23:20.509Z,8968.00
2018-01-07T11:24:20.518Z,8968.00
2018-01-07T11:25:20.543Z,8876.00
2018-01-07T11:26:20.544Z,8728.00
2018-01-07T11:27:20.551Z,8596.00
2018-01-07T11:28:20.574Z,8500.00
2018-01-07T11:29:20.582Z,8328.00
2018-01-07T11:30:20.592Z,8316.00
2018-01-07T11:31:20.611Z,8368.00
2018-01-07T11:32:20.622Z,8508.00
2018-01-07T11:33:20.631Z,8664.00
2018-01-07T11:34:20.651Z,8748.00
2018-01-07T11:35:20.667Z,8804.00
2018-01-07T11:36:20.668Z,9108.00
2018-01-07T11:37:20.696Z,9524.00
2018-01-07T11:38:20.702Z,9744.00
2018-01-07T11:39:20.746Z,9592.00
2018-01-07T11:40:20.731Z,9420.00
2018-01-07T11:41:20.739Z,9212.00
2018-01-07T11:42:21.068Z,9004.00
2018-01-07T11:43:20.776Z,8764.00
2018-01-07T11:44:20.785Z,8536.00
2018-01-07T11:45:20.800Z,8404.00
2018-01-07T11:46:20.858Z,8340.00
2018-01-07T11:47:20.817Z,8264.00
2018-01-07T11:48:20.845Z,8140.00
2018-01-07T11:49:20.854Z,8088.00
2018-01-07T11:50:20.857Z,8108.00
2018-01-07T11:51:20.877Z,8228.00
2018-01-07T11:52:20.888Z,8392.00
2018-01-07T11:53:20.902Z,8488.00
2018-01-07T11:54:20.916Z,8544.00
2018-01-07T11:55:20.925Z,8672.00
2018-01-07T11:56:20.948Z,8780.00
2018-01-07T11:57:21.258Z,8760.00
2018-01-07T11:58:20.964Z,8652.00
2018-01-07T11:59:20.986Z,8496.00
2018-01-07T12:00:20.998Z,8404.00
2018-01-07T12:01:21.012Z,8256.00
2018-01-07T12:02:21.026Z,8076.00
2018-01-07T12:03:21.035Z,7836.00
2018-01-07T12:04:21.044Z,7592.00
2018-01-07T12:05:21.064Z,7360.00
2018-01-07T12:06:21.074Z,7196.00
2018-01-07T12:07:21.084Z,7080.00
2018-01-07T12:08:21.103Z,6968.00
2018-01-07T12:09:21.114Z,6892.00
2018-01-07T12:10:21.141Z,6836.00
2018-01-07T12:11:21.149Z,6760.00
2018-01-07T12:12:21.160Z,6724.00
2018-01-07T12:13:21.174Z,6832.00
2018-01-07T12:14:21.195Z,6972.00
2018-01-07T12:15:21.191Z,7136.00
2018-01-07T12:16:21.214Z,7308.00
2018-01-07T12:17:21.220Z,7444.00
2018-01-07T12:18:21.231Z,7504.00
2018-01-07T12:19:21.252Z,7504.00
2018-01-07T12:20:21.279Z,7456.00
2018-01-07T12:21:21.277Z,7372.00
2018-01-07T12:22:21.293Z,7288.00
2018-01-07T12:23:21.300Z,7256.00
2018-01-07T12:24:21.308Z,7280.00
2018-01-07T12:25:21.336Z,7380.00
2018-01-07T12:26:21.339Z,7444.00
2018-01-07T12:27:21.350Z,7476.00
2018-01-07T12:28:21.380Z,7444.00
2018-01-07T12:29:21.378Z,7396.00
2018-01-07T12:30:21.388Z,7304.00
2018-01-07T12:31:21.416Z,7228.00
2018-01-07T12:32:21.424Z,7120.00
2018-01-07T12:33:21.426Z,6992.00
2018-01-07T12:34:21.448Z,6892.00
2018-01-07T12:35:21.457Z,6764.00
2018-01-07T12:36:21.473Z,6616.00
2018-01-07T12:37:21.792Z,6516.00
2018-01-07T12:38:21.501Z,6520.00
2018-01-07T12:39:21.533Z,6496.00
2018-01-07T12:40:21.525Z,6452.00
2018-01-07T12:41:21.541Z,6400.00
2018-01-07T12:42:21.557Z,6368.00
2018-01-07T12:43:21.566Z,6328.00
2018-01-07T12:44:21.574Z,6260.00
2018-01-07T12:45:21.591Z,6212.00